DLH430 EDDF-KORD
Flight info
| Callsign | DLH430 |
|---|---|
| Flight time | N/A |
| Altitude | 34000 |
| Route | OBOKA3D/07C OBOKA Z28 DIBIR DCT BUDIP DCT MIMVA L602 EMLON M79 TENDO DCT NAVSO DCT IBROD DCT SUNOT DCT 58N020W DCT 60N030W DCT 61N040W DCT 62N050W DCT NIFTY DCT PEPKI DCT LOPVI DCT PELSI DCT STAFE N890B SSM WYNDE3 |
| Aircraft | A346/H-VGDW/C |
Departure
| Time | 2026-05-07 18:59 |
|---|---|
| Airport | Frankfurt Main Airport (EDDF) |
Arrival
| Time | N/A |
|---|---|
| Airport | Chicago O'Hare International Airport (KORD) |
| Time | Latitude | Longitude | Altitude | Speed | Heading |
|---|---|---|---|---|---|
| 2026-05-07 18:22 | 50.04669 | 8.56048 | 364 ft | 0 kts | 340° |
| 2026-05-07 18:45 | 50.04668 | 8.56048 | 364 ft | 2 kts | 340° |
| 2026-05-07 18:46 | 50.04644 | 8.56062 | 371 ft | 4 kts | 340° |
| 2026-05-07 18:46 | 50.04624 | 8.56073 | 371 ft | 4 kts | 337° |
| 2026-05-07 18:46 | 50.04605 | 8.56092 | 365 ft | 4 kts | 310° |
| 2026-05-07 18:46 | 50.04596 | 8.56119 | 368 ft | 4 kts | 275° |
| 2026-05-07 18:47 | 50.04599 | 8.56151 | 367 ft | 1 kts | 251° |
| 2026-05-07 18:47 | 50.04592 | 8.56121 | 370 ft | 4 kts | 249° |
| 2026-05-07 18:47 | 50.04582 | 8.56082 | 364 ft | 4 kts | 249° |
| 2026-05-07 18:47 | 50.04579 | 8.56070 | 368 ft | 0 kts | 250° |
| 2026-05-07 18:50 | 50.04578 | 8.56063 | 364 ft | 2 kts | 250° |
| 2026-05-07 18:51 | 50.04570 | 8.56031 | 370 ft | 4 kts | 250° |
| 2026-05-07 18:51 | 50.04550 | 8.55984 | 371 ft | 6 kts | 222° |
| 2026-05-07 18:51 | 50.04508 | 8.55951 | 369 ft | 7 kts | 200° |
| 2026-05-07 18:51 | 50.04457 | 8.55922 | 369 ft | 8 kts | 198° |
| 2026-05-07 18:52 | 50.04391 | 8.55910 | 369 ft | 11 kts | 174° |
| 2026-05-07 18:52 | 50.04311 | 8.55948 | 367 ft | 13 kts | 160° |
| 2026-05-07 18:52 | 50.04248 | 8.55931 | 366 ft | 11 kts | 220° |
| 2026-05-07 18:52 | 50.04173 | 8.55927 | 361 ft | 13 kts | 164° |
| 2026-05-07 18:53 | 50.04090 | 8.55967 | 366 ft | 10 kts | 167° |
| 2026-05-07 18:53 | 50.04038 | 8.55905 | 365 ft | 12 kts | 249° |
| 2026-05-07 18:53 | 50.04004 | 8.55768 | 363 ft | 15 kts | 249° |
| 2026-05-07 18:53 | 50.03966 | 8.55612 | 363 ft | 16 kts | 249° |
| 2026-05-07 18:54 | 50.03926 | 8.55443 | 363 ft | 17 kts | 250° |
| 2026-05-07 18:54 | 50.03886 | 8.55272 | 361 ft | 17 kts | 250° |
| 2026-05-07 18:54 | 50.03844 | 8.55091 | 358 ft | 18 kts | 250° |
| 2026-05-07 18:54 | 50.03798 | 8.54897 | 364 ft | 20 kts | 250° |
| 2026-05-07 18:55 | 50.03748 | 8.54683 | 360 ft | 22 kts | 249° |
| 2026-05-07 18:55 | 50.03690 | 8.54452 | 358 ft | 21 kts | 249° |
| 2026-05-07 18:55 | 50.03656 | 8.54330 | 358 ft | 9 kts | 228° |
| 2026-05-07 18:55 | 50.03602 | 8.54312 | 360 ft | 7 kts | 160° |
| 2026-05-07 18:56 | 50.03549 | 8.54342 | 354 ft | 8 kts | 160° |
| 2026-05-07 18:56 | 50.03500 | 8.54369 | 359 ft | 7 kts | 160° |
| 2026-05-07 18:56 | 50.03485 | 8.54397 | 364 ft | 3 kts | 89° |
| 2026-05-07 18:56 | 50.03489 | 8.54417 | 366 ft | 0 kts | 71° |
| 2026-05-07 18:58 | 50.03533 | 8.54601 | 358 ft | 53 kts | 69° |
| 2026-05-07 18:58 | 50.03751 | 8.55503 | 362 ft | 122 kts | 69° |
| 2026-05-07 18:58 | 50.04120 | 8.57046 | 384 ft | 175 kts | 69° |
| 2026-05-07 18:59 | 50.04558 | 8.58878 | 957 ft | 183 kts | 69° |
| 2026-05-07 18:59 | 50.05007 | 8.60759 | 1689 ft | 186 kts | 69° |
| 2026-05-07 18:59 | 50.05448 | 8.62673 | 2384 ft | 192 kts | 70° |
| 2026-05-07 18:59 | 50.05884 | 8.64701 | 2824 ft | 204 kts | 70° |
| 2026-05-07 19:00 | 50.06356 | 8.66881 | 3156 ft | 220 kts | 70° |
| 2026-05-07 19:00 | 50.06867 | 8.69206 | 3609 ft | 230 kts | 67° |
| 2026-05-07 19:00 | 50.07736 | 8.71267 | 4247 ft | 229 kts | 36° |
| 2026-05-07 19:00 | 50.09154 | 8.72486 | 4765 ft | 238 kts | 21° |
| 2026-05-07 19:01 | 50.10752 | 8.73515 | 5016 ft | 257 kts | 21° |
| 2026-05-07 19:01 | 50.12429 | 8.74592 | 5007 ft | 262 kts | 21° |
| 2026-05-07 19:01 | 50.14109 | 8.75695 | 5011 ft | 263 kts | 21° |
| 2026-05-07 19:01 | 50.15790 | 8.76818 | 5016 ft | 263 kts | 22° |
| 2026-05-07 19:02 | 50.17480 | 8.77957 | 5016 ft | 263 kts | 22° |
| 2026-05-07 19:02 | 50.19169 | 8.79100 | 5021 ft | 264 kts | 22° |
| 2026-05-07 19:02 | 50.20886 | 8.80264 | 5385 ft | 272 kts | 22° |
| 2026-05-07 19:02 | 50.22614 | 8.81438 | 6232 ft | 269 kts | 22° |
| 2026-05-07 19:03 | 50.24353 | 8.82528 | 6945 ft | 271 kts | 11° |
| 2026-05-07 19:03 | 50.26224 | 8.82559 | 7542 ft | 272 kts | 343° |
| 2026-05-07 19:03 | 50.27894 | 8.81224 | 8184 ft | 272 kts | 317° |
| 2026-05-07 19:03 | 50.29010 | 8.78854 | 8819 ft | 275 kts | 291° |
| 2026-05-07 19:04 | 50.29633 | 8.76059 | 9479 ft | 277 kts | 288° |
| 2026-05-07 19:04 | 50.30241 | 8.73125 | 10118 ft | 281 kts | 288° |
| 2026-05-07 19:04 | 50.30862 | 8.70179 | 10585 ft | 290 kts | 288° |
| 2026-05-07 19:04 | 50.31513 | 8.67149 | 10866 ft | 306 kts | 288° |
| 2026-05-07 19:05 | 50.32225 | 8.63866 | 11145 ft | 321 kts | 288° |
| 2026-05-07 19:05 | 50.32952 | 8.60527 | 11418 ft | 336 kts | 288° |
| 2026-05-07 19:05 | 50.33733 | 8.56935 | 11703 ft | 351 kts | 289° |
| 2026-05-07 19:05 | 50.34528 | 8.53287 | 11958 ft | 366 kts | 289° |
| 2026-05-07 19:06 | 50.35362 | 8.49451 | 12377 ft | 375 kts | 289° |
| 2026-05-07 19:06 | 50.37050 | 8.41647 | 13720 ft | 380 kts | 287° |
| 2026-05-07 19:06 | 50.37567 | 8.37576 | 14270 ft | 384 kts | 274° |
| 2026-05-07 19:07 | 50.37443 | 8.33379 | 14840 ft | 387 kts | 260° |
| 2026-05-07 19:07 | 50.36762 | 8.29287 | 15413 ft | 389 kts | 253° |
| 2026-05-07 19:07 | 50.35939 | 8.25229 | 15993 ft | 392 kts | 252° |
| 2026-05-07 19:07 | 50.35096 | 8.21142 | 16543 ft | 395 kts | 252° |
| 2026-05-07 19:08 | 50.34253 | 8.17024 | 17148 ft | 397 kts | 252° |
| 2026-05-07 19:08 | 50.33413 | 8.12883 | 17713 ft | 400 kts | 252° |
| 2026-05-07 19:08 | 50.32569 | 8.08701 | 18271 ft | 403 kts | 252° |
| 2026-05-07 19:08 | 50.31721 | 8.04500 | 18752 ft | 407 kts | 252° |
| 2026-05-07 19:09 | 50.30866 | 8.00262 | 19241 ft | 409 kts | 252° |
| 2026-05-07 19:09 | 50.30043 | 7.95992 | 19711 ft | 412 kts | 257° |
| 2026-05-07 19:09 | 50.29772 | 7.91498 | 20148 ft | 415 kts | 272° |
| 2026-05-07 19:09 | 50.30247 | 7.87039 | 20641 ft | 417 kts | 286° |
| 2026-05-07 19:10 | 50.31341 | 7.82817 | 21146 ft | 419 kts | 293° |
| 2026-05-07 19:10 | 50.32578 | 7.78656 | 21610 ft | 422 kts | 294° |
| 2026-05-07 19:10 | 50.33827 | 7.74466 | 22045 ft | 426 kts | 294° |
| 2026-05-07 19:10 | 50.35203 | 7.70332 | 22450 ft | 431 kts | 302° |
| 2026-05-07 19:11 | 50.37162 | 7.66762 | 22890 ft | 436 kts | 316° |
| 2026-05-07 19:11 | 50.39652 | 7.64017 | 23324 ft | 441 kts | 330° |
| 2026-05-07 19:11 | 50.42453 | 7.61994 | 23770 ft | 444 kts | 335° |
| 2026-05-07 19:11 | 50.45308 | 7.60090 | 24108 ft | 448 kts | 335° |
| 2026-05-07 19:12 | 50.48142 | 7.58198 | 24464 ft | 450 kts | 335° |
| 2026-05-07 19:12 | 50.51028 | 7.56240 | 24867 ft | 452 kts | 334° |
| 2026-05-07 19:12 | 50.53884 | 7.54175 | 25259 ft | 453 kts | 332° |
| 2026-05-07 19:12 | 50.56679 | 7.51854 | 25625 ft | 454 kts | 329° |
| 2026-05-07 19:13 | 50.59429 | 7.49256 | 25989 ft | 456 kts | 326° |
| 2026-05-07 19:13 | 50.62098 | 7.46554 | 26350 ft | 457 kts | 325° |
| 2026-05-07 19:13 | 50.64770 | 7.43802 | 26715 ft | 460 kts | 325° |
| 2026-05-07 19:13 | 50.67415 | 7.41069 | 27034 ft | 462 kts | 325° |
| 2026-05-07 19:14 | 50.70110 | 7.38291 | 27370 ft | 464 kts | 325° |
| 2026-05-07 19:14 | 50.72718 | 7.35246 | 27700 ft | 465 kts | 319° |
| 2026-05-07 19:14 | 50.75072 | 7.31757 | 28053 ft | 465 kts | 312° |
| 2026-05-07 19:14 | 50.77151 | 7.27859 | 28565 ft | 462 kts | 306° |
| 2026-05-07 19:15 | 50.79026 | 7.23764 | 29092 ft | 459 kts | 304° |
| 2026-05-07 19:15 | 50.80855 | 7.19634 | 29589 ft | 458 kts | 303° |
| 2026-05-07 19:15 | 50.82697 | 7.15453 | 30079 ft | 457 kts | 303° |
| 2026-05-07 19:15 | 50.84519 | 7.11325 | 30476 ft | 456 kts | 304° |
| 2026-05-07 19:16 | 50.86335 | 7.07224 | 30868 ft | 455 kts | 304° |
| 2026-05-07 19:16 | 50.88155 | 7.03122 | 31240 ft | 454 kts | 303° |
| 2026-05-07 19:16 | 50.89972 | 6.99022 | 31615 ft | 453 kts | 303° |
| 2026-05-07 19:16 | 50.91783 | 6.94928 | 31982 ft | 452 kts | 303° |
| 2026-05-07 19:17 | 50.93591 | 6.90836 | 32343 ft | 452 kts | 303° |
| 2026-05-07 19:17 | 50.95391 | 6.86755 | 32655 ft | 452 kts | 303° |
| 2026-05-07 19:17 | 50.97211 | 6.82624 | 32919 ft | 454 kts | 303° |
| 2026-05-07 19:17 | 50.99033 | 6.78482 | 33171 ft | 455 kts | 303° |
| 2026-05-07 19:18 | 51.00848 | 6.74349 | 33445 ft | 456 kts | 303° |
| 2026-05-07 19:18 | 51.02665 | 6.70208 | 33680 ft | 457 kts | 303° |
| 2026-05-07 19:18 | 51.04487 | 6.66048 | 33947 ft | 458 kts | 303° |
| 2026-05-07 19:18 | 51.06311 | 6.61875 | 34078 ft | 461 kts | 303° |
| 2026-05-07 19:19 | 51.10027 | 6.53350 | 34076 ft | 473 kts | 303° |
| 2026-05-07 19:19 | 51.13789 | 6.44685 | 34075 ft | 475 kts | 303° |
| 2026-05-07 19:20 | 51.17519 | 6.36068 | 34078 ft | 476 kts | 303° |
| 2026-05-07 19:20 | 51.21274 | 6.27369 | 34070 ft | 477 kts | 303° |
| 2026-05-07 19:21 | 51.25036 | 6.18624 | 34081 ft | 477 kts | 302° |
| 2026-05-07 19:21 | 51.28772 | 6.09861 | 34070 ft | 476 kts | 302° |
| 2026-05-07 19:22 | 51.32409 | 6.00957 | 34071 ft | 475 kts | 301° |
| 2026-05-07 19:22 | 51.36199 | 5.92251 | 34074 ft | 477 kts | 306° |
| 2026-05-07 19:23 | 51.40518 | 5.84169 | 34074 ft | 478 kts | 311° |
| 2026-05-07 19:23 | 51.45352 | 5.76759 | 34078 ft | 481 kts | 316° |
| 2026-05-07 19:24 | 51.50346 | 5.69667 | 34078 ft | 481 kts | 316° |
| 2026-05-07 19:24 | 51.55377 | 5.62523 | 34075 ft | 481 kts | 316° |
| 2026-05-07 19:25 | 51.59547 | 5.56571 | 34077 ft | 481 kts | 316° |
| 2026-05-07 19:25 | 51.64547 | 5.49403 | 34077 ft | 481 kts | 316° |
| 2026-05-07 19:26 | 51.69545 | 5.42212 | 34087 ft | 482 kts | 316° |
| 2026-05-07 19:26 | 51.74556 | 5.34977 | 34082 ft | 483 kts | 316° |
| 2026-05-07 19:27 | 51.79553 | 5.27747 | 34083 ft | 482 kts | 316° |
| 2026-05-07 19:27 | 51.84545 | 5.20496 | 34080 ft | 482 kts | 316° |
| 2026-05-07 19:28 | 51.89517 | 5.13250 | 34079 ft | 482 kts | 316° |
| 2026-05-07 19:28 | 51.94499 | 5.05969 | 34083 ft | 482 kts | 316° |
| 2026-05-07 19:29 | 51.99506 | 4.98627 | 34079 ft | 483 kts | 316° |
| 2026-05-07 19:29 | 52.04492 | 4.91294 | 34079 ft | 483 kts | 316° |
| 2026-05-07 19:30 | 52.09462 | 4.83967 | 34078 ft | 482 kts | 315° |
| 2026-05-07 19:30 | 52.14395 | 4.76665 | 34080 ft | 482 kts | 315° |
| 2026-05-07 19:31 | 52.19353 | 4.69302 | 34074 ft | 482 kts | 315° |
| 2026-05-07 19:31 | 52.24324 | 4.61894 | 34075 ft | 484 kts | 315° |
| 2026-05-07 19:32 | 52.29302 | 4.54460 | 34079 ft | 485 kts | 315° |
| 2026-05-07 19:32 | 52.34288 | 4.46988 | 34078 ft | 485 kts | 315° |
| 2026-05-07 19:33 | 52.39254 | 4.39521 | 34082 ft | 485 kts | 315° |
| 2026-05-07 19:33 | 52.44217 | 4.32035 | 34090 ft | 484 kts | 315° |
| 2026-05-07 19:34 | 52.49187 | 4.24507 | 34093 ft | 487 kts | 315° |
| 2026-05-07 19:34 | 52.54191 | 4.16914 | 34095 ft | 488 kts | 315° |
| 2026-05-07 19:35 | 52.59183 | 4.09312 | 34099 ft | 488 kts | 315° |
| 2026-05-07 19:35 | 52.64173 | 4.01689 | 34099 ft | 488 kts | 315° |
| 2026-05-07 19:36 | 52.69148 | 3.94058 | 34103 ft | 488 kts | 315° |